createdAt,value
2024-03-04T00:00:14.866Z,0.52
2024-03-04T00:01:14.940Z,0.52
2024-03-04T00:02:15.013Z,0.52
2024-03-04T00:03:14.937Z,0.51
2024-03-04T00:04:15.050Z,0.52
2024-03-04T00:05:14.994Z,0.52
2024-03-04T00:06:15.042Z,0.51
2024-03-04T00:07:15.078Z,0.52
2024-03-04T00:08:15.068Z,0.52
2024-03-04T00:09:15.095Z,0.52
2024-03-04T00:10:15.143Z,0.52
2024-03-04T00:11:15.158Z,0.52
2024-03-04T00:12:15.162Z,0.52
2024-03-04T00:13:15.206Z,0.51
2024-03-04T00:14:15.276Z,0.51
2024-03-04T00:15:15.274Z,0.52
2024-03-04T00:16:15.268Z,0.52
2024-03-04T00:17:15.362Z,0.52
2024-03-04T00:18:15.340Z,0.52
2024-03-04T00:19:15.342Z,0.51
2024-03-04T00:20:15.401Z,0.51
2024-03-04T00:21:15.406Z,0.52
2024-03-04T00:22:15.494Z,0.52
2024-03-04T00:23:15.432Z,0.52
2024-03-04T00:24:15.435Z,0.51
2024-03-04T00:25:15.569Z,0.52
2024-03-04T00:26:15.476Z,0.51
2024-03-04T00:27:15.486Z,0.52
2024-03-04T00:28:15.550Z,0.50
2024-03-04T00:29:15.524Z,0.53
2024-03-04T00:30:15.561Z,0.52
2024-03-04T00:31:15.699Z,0.51
2024-03-04T00:32:15.576Z,0.52
2024-03-04T00:33:15.690Z,0.51
2024-03-04T00:34:15.683Z,0.52
2024-03-04T00:35:15.639Z,0.52
2024-03-04T00:36:15.687Z,0.51
2024-03-04T00:37:15.735Z,0.51
2024-03-04T00:38:15.684Z,0.52
2024-03-04T00:39:15.749Z,0.52
2024-03-04T00:40:15.782Z,0.52
2024-03-04T00:41:15.772Z,0.52
2024-03-04T00:42:15.766Z,0.51
2024-03-04T00:43:15.847Z,0.52
2024-03-04T00:44:15.812Z,0.52
2024-03-04T00:45:15.839Z,0.51
2024-03-04T00:46:15.923Z,0.51
2024-03-04T00:47:15.873Z,0.51
2024-03-04T00:48:15.981Z,0.52
2024-03-04T00:49:15.989Z,0.52
2024-03-04T00:50:15.945Z,0.51
2024-03-04T00:51:15.959Z,0.52
2024-03-04T00:52:15.975Z,0.52
2024-03-04T00:53:15.987Z,0.51
2024-03-04T00:54:15.987Z,0.52
2024-03-04T00:55:16.102Z,0.53
2024-03-04T00:56:16.022Z,0.52
2024-03-04T00:57:16.082Z,0.51
2024-03-04T00:58:16.084Z,0.51
2024-03-04T00:59:16.065Z,0.52
2024-03-04T01:00:16.453Z,0.52
2024-03-04T01:01:16.172Z,0.51
2024-03-04T01:02:16.088Z,0.51
2024-03-04T01:03:16.121Z,0.50
2024-03-04T01:04:16.208Z,0.52
2024-03-04T01:05:16.165Z,0.51
2024-03-04T01:06:16.165Z,0.51
2024-03-04T01:07:16.224Z,0.52
2024-03-04T01:08:16.230Z,0.52
2024-03-04T01:09:16.282Z,0.51
2024-03-04T01:10:16.349Z,0.51
2024-03-04T01:11:16.327Z,0.51
2024-03-04T01:12:16.324Z,0.51
2024-03-04T01:13:16.515Z,0.52
2024-03-04T01:14:16.378Z,0.51
2024-03-04T01:15:16.352Z,0.51
2024-03-04T01:16:16.475Z,0.51
2024-03-04T01:17:16.411Z,0.51
2024-03-04T01:18:16.470Z,0.52
2024-03-04T01:19:16.511Z,0.51
2024-03-04T01:20:16.497Z,0.51
2024-03-04T01:21:16.495Z,0.52
2024-03-04T01:22:16.504Z,0.51
2024-03-04T01:23:16.551Z,0.51
2024-03-04T01:24:16.501Z,0.51
2024-03-04T01:25:16.604Z,0.51
2024-03-04T01:26:16.500Z,0.50
2024-03-04T01:27:16.586Z,0.52
2024-03-04T01:28:16.641Z,0.51
2024-03-04T01:29:16.600Z,0.51
2024-03-04T01:30:16.654Z,0.51
2024-03-04T01:31:16.712Z,0.50
2024-03-04T01:32:16.716Z,0.51
2024-03-04T01:33:16.751Z,0.51
2024-03-04T01:34:16.816Z,0.51
2024-03-04T01:35:16.774Z,0.51
2024-03-04T01:36:16.811Z,0.50
2024-03-04T01:37:16.852Z,0.50
2024-03-04T01:38:16.811Z,0.51
2024-03-04T01:39:16.845Z,0.50
2024-03-04T01:40:16.886Z,0.51
2024-03-04T01:41:16.829Z,0.51
2024-03-04T01:42:16.863Z,0.51
2024-03-04T01:43:16.904Z,0.51
2024-03-04T01:44:16.890Z,0.52
2024-03-04T01:45:16.903Z,0.51
2024-03-04T01:46:16.939Z,0.51
2024-03-04T01:47:16.971Z,0.51
2024-03-04T01:48:16.959Z,0.51
2024-03-04T01:49:16.930Z,0.52
2024-03-04T01:50:17.006Z,0.51
2024-03-04T01:51:16.954Z,0.51
2024-03-04T01:52:17.089Z,0.51
2024-03-04T01:53:16.998Z,0.51
2024-03-04T01:54:17.009Z,0.52
2024-03-04T01:55:17.127Z,0.51
2024-03-04T01:56:17.040Z,0.51
2024-03-04T01:57:17.032Z,0.51
2024-03-04T01:58:17.057Z,0.51
2024-03-04T01:59:17.060Z,0.52
2024-03-04T02:00:17.081Z,0.50
2024-03-04T02:01:17.139Z,0.51
2024-03-04T02:02:17.192Z,0.52
2024-03-04T02:03:17.122Z,0.52
2024-03-04T02:04:17.250Z,0.51
2024-03-04T02:05:17.135Z,0.51
2024-03-04T02:06:17.144Z,0.50
2024-03-04T02:07:17.222Z,0.52
2024-03-04T02:08:17.175Z,0.52
2024-03-04T02:09:17.474Z,0.52
2024-03-04T02:10:17.211Z,0.51
2024-03-04T02:11:17.237Z,0.51
2024-03-04T02:12:17.206Z,0.50
2024-03-04T02:13:17.291Z,0.51
2024-03-04T02:14:17.209Z,0.51
2024-03-04T02:15:17.251Z,0.51
2024-03-04T02:16:17.236Z,0.51
2024-03-04T02:17:17.236Z,0.51
2024-03-04T02:18:17.302Z,0.51
2024-03-04T02:19:17.312Z,0.51
2024-03-04T02:20:17.292Z,0.50
2024-03-04T02:21:17.295Z,0.51
2024-03-04T02:22:17.317Z,0.51
2024-03-04T02:23:17.315Z,0.51
2024-03-04T02:24:17.322Z,0.50
2024-03-04T02:25:17.370Z,0.52
2024-03-04T02:26:17.368Z,0.51
2024-03-04T02:27:17.382Z,0.51
2024-03-04T02:28:17.421Z,0.51
2024-03-04T02:29:17.415Z,0.52
2024-03-04T02:30:17.410Z,0.52
2024-03-04T02:31:17.434Z,0.52
2024-03-04T02:32:17.417Z,0.52
2024-03-04T02:33:17.429Z,0.50
2024-03-04T02:34:17.572Z,0.52
2024-03-04T02:35:17.461Z,0.52
2024-03-04T02:36:17.522Z,0.52
2024-03-04T02:37:17.582Z,0.51
2024-03-04T02:38:17.486Z,0.51
2024-03-04T02:39:17.496Z,0.51
2024-03-04T02:40:17.582Z,0.51
2024-03-04T02:41:17.534Z,0.50
2024-03-04T02:42:17.547Z,0.51
2024-03-04T02:43:17.646Z,0.51
2024-03-04T02:44:17.612Z,0.51
2024-03-04T02:45:17.611Z,0.51
2024-03-04T02:46:17.666Z,0.52
2024-03-04T02:47:17.642Z,0.51
2024-03-04T02:48:17.821Z,0.51
2024-03-04T02:49:17.742Z,0.51
2024-03-04T02:50:17.747Z,0.51
2024-03-04T02:51:17.769Z,0.51
2024-03-04T02:52:17.821Z,0.50
2024-03-04T02:53:17.846Z,0.52
2024-03-04T02:54:17.862Z,0.51
2024-03-04T02:55:18.022Z,0.52
2024-03-04T02:56:17.913Z,0.51
2024-03-04T02:57:17.934Z,0.51
2024-03-04T02:58:18.155Z,0.50
2024-03-04T02:59:18.035Z,0.52
2024-03-04T03:00:18.053Z,0.50
2024-03-04T03:01:18.118Z,0.51
2024-03-04T03:02:18.174Z,0.50
2024-03-04T03:03:18.128Z,0.51
2024-03-04T03:04:18.229Z,0.52
2024-03-04T03:05:18.172Z,0.51
2024-03-04T03:06:18.292Z,0.51
2024-03-04T03:07:18.277Z,0.51
2024-03-04T03:08:18.266Z,0.52
2024-03-04T03:09:18.301Z,0.50
2024-03-04T03:10:18.351Z,0.52
2024-03-04T03:11:18.330Z,0.51
2024-03-04T03:12:18.357Z,0.51
2024-03-04T03:13:18.362Z,0.52
2024-03-04T03:14:18.367Z,0.51
2024-03-04T03:15:18.476Z,0.51
2024-03-04T03:16:18.476Z,0.51
2024-03-04T03:17:18.475Z,0.51
2024-03-04T03:18:18.492Z,0.52
2024-03-04T03:19:18.560Z,0.51
2024-03-04T03:20:18.720Z,0.51
2024-03-04T03:21:18.644Z,0.51
2024-03-04T03:22:18.699Z,0.51
2024-03-04T03:23:18.636Z,0.51
2024-03-04T03:24:18.670Z,0.50
2024-03-04T03:25:18.754Z,0.51
2024-03-04T03:26:18.839Z,0.51
2024-03-04T03:27:18.796Z,0.51
2024-03-04T03:28:18.841Z,0.51
2024-03-04T03:29:18.880Z,0.50
2024-03-04T03:30:18.839Z,0.51
2024-03-04T03:31:18.942Z,0.52
2024-03-04T03:32:18.890Z,0.52
2024-03-04T03:33:18.935Z,0.51
2024-03-04T03:34:18.962Z,0.51
2024-03-04T03:35:19.021Z,0.51
2024-03-04T03:36:19.020Z,0.51
2024-03-04T03:37:19.113Z,0.51
2024-03-04T03:38:19.059Z,0.52
2024-03-04T03:39:19.094Z,0.51
2024-03-04T03:40:19.140Z,0.51
2024-03-04T03:41:19.119Z,0.51
2024-03-04T03:42:19.146Z,0.52
2024-03-04T03:43:19.231Z,0.50
2024-03-04T03:44:19.158Z,0.53
2024-03-04T03:45:19.270Z,0.51
2024-03-04T03:46:19.248Z,0.52
2024-03-04T03:47:19.256Z,0.51
2024-03-04T03:48:19.280Z,0.52
2024-03-04T03:49:19.363Z,0.50
2024-03-04T03:50:19.380Z,0.50
2024-03-04T03:51:19.418Z,0.51
2024-03-04T03:52:19.483Z,0.52
2024-03-04T03:53:19.436Z,0.51
2024-03-04T03:54:19.457Z,0.52
2024-03-04T03:55:19.551Z,0.52
2024-03-04T03:56:19.524Z,0.51
2024-03-04T03:57:19.587Z,0.52
2024-03-04T03:58:19.611Z,0.52
2024-03-04T03:59:19.612Z,0.51
2024-03-04T04:00:19.721Z,0.52
2024-03-04T04:01:19.858Z,0.51
2024-03-04T04:02:19.735Z,0.51
2024-03-04T04:03:19.881Z,0.52
2024-03-04T04:04:19.804Z,0.51
2024-03-04T04:05:19.812Z,0.51
2024-03-04T04:06:19.942Z,0.51
2024-03-04T04:07:19.927Z,0.51
2024-03-04T04:08:19.922Z,0.51
2024-03-04T04:09:19.943Z,0.51
2024-03-04T04:10:20.020Z,0.51
2024-03-04T04:11:20.034Z,0.50
2024-03-04T04:12:20.010Z,0.50
2024-03-04T04:13:20.057Z,0.51
2024-03-04T04:14:20.044Z,0.52
2024-03-04T04:15:20.089Z,0.51
2024-03-04T04:16:20.112Z,0.51
2024-03-04T04:17:20.092Z,0.50
2024-03-04T04:18:20.113Z,0.51
2024-03-04T04:19:20.158Z,0.52
2024-03-04T04:20:20.159Z,0.51
2024-03-04T04:21:20.178Z,0.51
2024-03-04T04:22:20.249Z,0.50
2024-03-04T04:23:20.254Z,0.51
2024-03-04T04:24:20.264Z,0.51
2024-03-04T04:25:20.360Z,0.51
2024-03-04T04:26:20.321Z,0.51
2024-03-04T04:27:20.325Z,0.51
2024-03-04T04:28:20.376Z,0.51
2024-03-04T04:29:20.392Z,0.51
2024-03-04T04:30:20.348Z,0.51
2024-03-04T04:31:20.471Z,0.51
2024-03-04T04:32:20.354Z,0.51
2024-03-04T04:33:20.359Z,0.51
2024-03-04T04:34:21.069Z,0.51
2024-03-04T04:35:20.402Z,0.51
2024-03-04T04:36:20.433Z,0.52
2024-03-04T04:37:20.426Z,0.52
2024-03-04T04:38:20.408Z,0.51
2024-03-04T04:39:20.413Z,0.51
2024-03-04T04:40:20.613Z,0.52
2024-03-04T04:41:20.548Z,0.52
2024-03-04T04:42:20.553Z,0.52
2024-03-04T04:43:20.578Z,0.51
2024-03-04T04:44:20.607Z,0.52
2024-03-04T04:45:20.629Z,0.52
2024-03-04T04:46:20.715Z,0.52
2024-03-04T04:47:20.692Z,0.53
2024-03-04T04:48:20.705Z,0.52
2024-03-04T04:49:28.065Z,0.50
2024-03-04T04:50:28.039Z,0.50
2024-03-04T04:51:28.009Z,0.50
2024-03-04T04:52:28.057Z,0.50
2024-03-04T04:53:28.005Z,0.50
2024-03-04T04:54:28.032Z,0.51
2024-03-04T04:55:28.050Z,0.51
2024-03-04T04:56:28.625Z,0.50
2024-03-04T04:57:28.044Z,0.51
2024-03-04T04:58:28.101Z,0.51
2024-03-04T04:59:28.035Z,0.51
2024-03-04T05:00:28.049Z,0.51
2024-03-04T05:01:28.213Z,0.51
2024-03-04T05:02:28.024Z,0.51
2024-03-04T05:03:40.039Z,0.51
2024-03-04T05:04:43.716Z,0.51
2024-03-04T05:05:29.135Z,0.51
2024-03-04T05:06:28.042Z,0.51
2024-03-04T05:07:28.096Z,0.51
2024-03-04T05:08:28.047Z,0.51
2024-03-04T05:09:28.061Z,0.52
2024-03-04T05:10:28.093Z,0.51
2024-03-04T05:11:28.096Z,0.51
2024-03-04T05:12:28.061Z,0.52
2024-03-04T05:13:28.098Z,0.52
2024-03-04T05:14:28.057Z,0.51
2024-03-04T05:15:28.063Z,0.51
2024-03-04T05:16:28.076Z,0.51
2024-03-04T05:17:28.073Z,0.51
2024-03-04T05:18:28.047Z,0.52
2024-03-04T05:19:28.135Z,0.51
2024-03-04T05:20:28.083Z,0.52
2024-03-04T05:21:28.053Z,0.50
2024-03-04T05:22:28.086Z,0.51
2024-03-04T05:23:28.165Z,0.51
2024-03-04T05:24:28.081Z,0.51
2024-03-04T05:25:28.101Z,0.51
2024-03-04T05:26:28.067Z,0.52
2024-03-04T05:27:30.780Z,0.52
2024-03-04T05:28:28.107Z,0.53
2024-03-04T05:29:28.074Z,0.52
2024-03-04T05:30:28.079Z,0.52
2024-03-04T05:31:28.179Z,0.52
2024-03-04T05:32:28.168Z,0.52
2024-03-04T05:33:28.064Z,0.52
2024-03-04T05:34:28.139Z,0.52
2024-03-04T05:35:28.074Z,0.52
2024-03-04T05:36:28.101Z,0.52
2024-03-04T05:37:28.186Z,0.53
2024-03-04T05:38:28.118Z,0.52
2024-03-04T05:39:28.097Z,0.52
2024-03-04T05:40:28.122Z,0.51
2024-03-04T05:41:28.101Z,0.52
2024-03-04T05:42:28.093Z,0.52
2024-03-04T05:43:28.164Z,0.52
2024-03-04T05:44:28.129Z,0.53
2024-03-04T05:45:28.117Z,0.51
2024-03-04T05:46:28.201Z,0.52
2024-03-04T05:47:28.224Z,0.53
2024-03-04T05:48:28.109Z,0.51
2024-03-04T05:49:28.127Z,0.52
2024-03-04T05:50:28.231Z,0.53
2024-03-04T05:51:28.119Z,0.53
2024-03-04T05:52:28.238Z,0.51
2024-03-04T05:53:28.120Z,0.53
2024-03-04T05:54:28.135Z,0.52
2024-03-04T05:55:28.227Z,0.51
2024-03-04T05:56:28.121Z,0.51
2024-03-04T05:57:28.135Z,0.51
2024-03-04T05:58:28.179Z,0.51
2024-03-04T05:59:28.192Z,0.51
2024-03-04T06:00:28.259Z,0.51
2024-03-04T06:01:28.366Z,0.52
2024-03-04T06:02:28.140Z,0.50
2024-03-04T06:03:28.136Z,0.51
2024-03-04T06:04:28.173Z,0.52
2024-03-04T06:05:28.181Z,0.51
2024-03-04T06:06:28.144Z,0.52
2024-03-04T06:07:28.215Z,0.52
2024-03-04T06:08:28.131Z,0.52
2024-03-04T06:09:28.338Z,0.53
2024-03-04T06:10:28.135Z,0.52
2024-03-04T06:11:28.250Z,0.52
2024-03-04T06:12:28.193Z,0.53
2024-03-04T06:13:28.234Z,0.53
2024-03-04T06:14:28.130Z,0.53
2024-03-04T06:15:28.142Z,0.54
2024-03-04T06:16:28.197Z,0.54
2024-03-04T06:17:28.209Z,0.54
2024-03-04T06:18:28.141Z,0.55
2024-03-04T06:19:28.164Z,0.55
2024-03-04T06:20:28.151Z,0.55
2024-03-04T06:21:28.167Z,0.56
2024-03-04T06:22:30.563Z,0.57
2024-03-04T06:23:28.194Z,0.57
2024-03-04T06:24:28.156Z,0.57
2024-03-04T06:25:28.700Z,0.58
2024-03-04T06:26:28.187Z,0.58
2024-03-04T06:27:28.182Z,0.59
2024-03-04T06:28:28.225Z,0.59
2024-03-04T06:29:28.202Z,0.59
2024-03-04T06:30:28.252Z,0.61
2024-03-04T06:31:28.219Z,0.61
2024-03-04T06:32:28.222Z,0.63
2024-03-04T06:33:39.826Z,0.62
2024-03-04T06:34:29.311Z,0.62
2024-03-04T06:35:28.692Z,0.63
2024-03-04T06:36:28.353Z,0.65
2024-03-04T06:37:28.303Z,0.68
2024-03-04T06:38:30.307Z,0.76
2024-03-04T06:39:28.191Z,0.81
2024-03-04T06:40:28.321Z,0.82
2024-03-04T06:41:28.248Z,0.87
2024-03-04T06:42:28.294Z,0.87
2024-03-04T06:43:28.366Z,0.87
2024-03-04T06:44:28.387Z,0.93
2024-03-04T06:45:28.957Z,0.96
2024-03-04T06:46:28.512Z,0.97
2024-03-04T06:47:28.569Z,0.98
2024-03-04T06:48:28.629Z,1.03
2024-03-04T06:49:28.689Z,1.07
2024-03-04T06:50:28.705Z,1.10
2024-03-04T06:51:28.778Z,1.13
2024-03-04T06:52:28.837Z,1.14
2024-03-04T06:53:28.921Z,1.17
2024-03-04T06:54:28.969Z,1.18
2024-03-04T06:55:29.331Z,1.20
2024-03-04T06:56:29.068Z,1.19
2024-03-04T06:57:31.773Z,1.20
2024-03-04T06:58:29.193Z,1.20
2024-03-04T06:59:29.104Z,1.21
2024-03-04T07:00:29.115Z,1.21
2024-03-04T07:01:29.251Z,1.23
2024-03-04T07:02:29.108Z,1.23
2024-03-04T07:03:29.121Z,1.23
2024-03-04T07:04:29.163Z,1.20
2024-03-04T07:05:29.125Z,1.19
2024-03-04T07:06:29.125Z,1.23
2024-03-04T07:07:29.215Z,1.23
2024-03-04T07:08:32.252Z,1.21
2024-03-04T07:09:29.116Z,1.21
2024-03-04T07:10:29.197Z,1.21
2024-03-04T07:11:29.219Z,1.20
2024-03-04T07:12:29.159Z,1.18
2024-03-04T07:13:29.154Z,1.18
2024-03-04T07:14:29.128Z,1.16
2024-03-04T07:15:29.160Z,1.14
2024-03-04T07:16:29.168Z,1.17
2024-03-04T07:17:29.188Z,1.13
2024-03-04T07:18:29.173Z,1.13
2024-03-04T07:19:29.157Z,1.14
2024-03-04T07:20:29.187Z,1.10
2024-03-04T07:21:29.118Z,1.10
2024-03-04T07:22:29.214Z,1.12
2024-03-04T07:23:29.142Z,1.08
2024-03-04T07:24:29.132Z,1.08
2024-03-04T07:25:29.236Z,1.07
2024-03-04T07:26:29.246Z,1.06
2024-03-04T07:27:29.299Z,1.08
2024-03-04T07:28:29.476Z,1.05
2024-03-04T07:29:37.954Z,1.07
2024-03-04T07:30:30.548Z,1.05
2024-03-04T07:31:29.469Z,1.06
2024-03-04T07:32:29.491Z,1.05
2024-03-04T07:33:29.437Z,1.05
2024-03-04T07:34:29.523Z,1.02
2024-03-04T07:35:29.441Z,1.03
2024-03-04T07:36:29.416Z,0.98
2024-03-04T07:37:29.515Z,0.97
2024-03-04T07:38:29.458Z,0.98
2024-03-04T07:39:29.649Z,0.99
2024-03-04T07:40:30.258Z,1.02
2024-03-04T07:41:29.660Z,1.03
2024-03-04T07:42:29.743Z,1.04
2024-03-04T07:43:29.970Z,1.08
2024-03-04T07:44:29.876Z,1.11
2024-03-04T07:45:29.940Z,1.10
2024-03-04T07:46:30.014Z,1.09
2024-03-04T07:47:30.072Z,1.11
2024-03-04T07:48:30.694Z,1.11
2024-03-04T07:49:30.496Z,1.11
2024-03-04T07:50:30.751Z,1.09
2024-03-04T07:51:31.177Z,1.07
2024-03-04T07:52:30.391Z,1.10
2024-03-04T07:53:30.363Z,1.09
2024-03-04T07:54:30.443Z,1.10
2024-03-04T07:55:32.137Z,1.06
2024-03-04T07:56:30.602Z,1.09
2024-03-04T07:57:30.643Z,1.10
2024-03-04T07:58:30.785Z,1.09
2024-03-04T07:59:30.857Z,1.07
2024-03-04T08:00:31.859Z,1.11
2024-03-04T08:01:31.370Z,1.11
2024-03-04T08:02:31.036Z,1.09
2024-03-04T08:03:31.165Z,1.09
2024-03-04T08:04:31.166Z,1.09
2024-03-04T08:05:31.192Z,1.10
2024-03-04T08:06:31.703Z,1.07
2024-03-04T08:07:31.371Z,1.11
2024-03-04T08:08:31.393Z,1.08
2024-03-04T08:09:31.488Z,1.10
2024-03-04T08:10:31.588Z,1.10
2024-03-04T08:11:31.613Z,1.07
2024-03-04T08:12:31.688Z,1.11
2024-03-04T08:13:31.774Z,1.09
2024-03-04T08:14:31.763Z,1.11
2024-03-04T08:15:31.825Z,1.14
2024-03-04T08:16:31.904Z,1.12
2024-03-04T08:17:33.695Z,1.15
2024-03-04T08:18:32.015Z,1.14
2024-03-04T08:19:32.061Z,1.16
2024-03-04T08:20:34.342Z,1.17
2024-03-04T08:21:32.199Z,1.18
2024-03-04T08:22:32.126Z,1.18
2024-03-04T08:23:32.091Z,1.22
2024-03-04T08:24:32.070Z,1.22
2024-03-04T08:25:32.240Z,1.23
2024-03-04T08:26:32.044Z,1.25
2024-03-04T08:27:32.046Z,1.25
2024-03-04T08:28:35.669Z,1.26
2024-03-04T08:29:32.072Z,1.26
2024-03-04T08:30:32.044Z,1.26
2024-03-04T08:31:32.889Z,1.26
2024-03-04T08:32:32.090Z,1.29
2024-03-04T08:33:32.072Z,1.26
2024-03-04T08:34:32.078Z,1.26
2024-03-04T08:35:32.080Z,1.21
2024-03-04T08:36:32.215Z,1.18
2024-03-04T08:37:32.726Z,1.15
2024-03-04T08:38:32.042Z,1.12
2024-03-04T08:39:32.270Z,1.10
2024-03-04T08:40:32.375Z,1.08
2024-03-04T08:41:32.073Z,1.08
2024-03-04T08:42:32.078Z,1.07
2024-03-04T08:43:32.129Z,1.05
2024-03-04T08:44:32.062Z,1.06
2024-03-04T08:45:32.070Z,1.05
2024-03-04T08:46:32.272Z,1.04
2024-03-04T08:47:32.761Z,0.98
2024-03-04T08:48:32.082Z,0.96
2024-03-04T08:49:32.101Z,0.92
2024-03-04T08:50:32.079Z,0.89
2024-03-04T08:51:32.082Z,0.89
2024-03-04T08:52:32.408Z,0.87
2024-03-04T08:53:32.178Z,0.86
2024-03-04T08:54:32.259Z,0.84
2024-03-04T08:55:32.511Z,0.83
2024-03-04T08:56:32.363Z,0.83
2024-03-04T08:57:32.400Z,0.81
2024-03-04T08:58:32.497Z,0.81
2024-03-04T08:59:32.539Z,0.80
2024-03-04T09:00:32.788Z,0.78
2024-03-04T09:01:32.782Z,0.76
2024-03-04T09:02:32.716Z,0.74
2024-03-04T09:03:32.767Z,0.72
2024-03-04T09:04:32.865Z,0.72
2024-03-04T09:05:32.902Z,0.72
2024-03-04T09:06:32.926Z,0.72
2024-03-04T09:07:32.988Z,0.74
2024-03-04T09:08:33.034Z,0.72
2024-03-04T09:09:33.103Z,0.75
2024-03-04T09:10:34.495Z,0.75
2024-03-04T09:11:33.302Z,0.75
2024-03-04T09:12:33.312Z,0.77
2024-03-04T09:13:33.399Z,0.79
2024-03-04T09:14:33.499Z,0.80
2024-03-04T09:15:35.317Z,0.81
2024-03-04T09:16:33.449Z,0.82
2024-03-04T09:17:33.552Z,0.83
2024-03-04T09:18:33.599Z,0.85
2024-03-04T09:19:33.686Z,0.83
2024-03-04T09:20:33.680Z,0.86
2024-03-04T09:21:33.687Z,0.86
2024-03-04T09:22:33.766Z,0.88
2024-03-04T09:23:33.770Z,0.86
2024-03-04T09:24:33.810Z,0.87
2024-03-04T09:25:34.265Z,0.82
2024-03-04T09:26:33.908Z,0.81
2024-03-04T09:27:33.908Z,0.83
2024-03-04T09:28:34.101Z,0.85
2024-03-04T09:29:34.011Z,0.84
2024-03-04T09:30:33.965Z,0.82
2024-03-04T09:31:34.866Z,0.77
2024-03-04T09:32:34.031Z,0.73
2024-03-04T09:33:34.064Z,0.70
2024-03-04T09:34:34.836Z,0.67
2024-03-04T09:35:34.230Z,0.62
2024-03-04T09:36:34.305Z,0.61
2024-03-04T09:37:34.191Z,0.57
2024-03-04T09:38:34.306Z,0.54
2024-03-04T09:39:34.227Z,0.52
2024-03-04T09:40:35.364Z,0.50
2024-03-04T09:41:34.283Z,0.50
2024-03-04T09:42:34.360Z,0.52
2024-03-04T09:43:34.432Z,0.50
2024-03-04T09:44:34.451Z,0.51
2024-03-04T09:45:35.373Z,0.50
2024-03-04T09:46:34.752Z,0.50
2024-03-04T09:47:34.548Z,0.50
2024-03-04T09:48:34.567Z,0.51
2024-03-04T09:49:34.765Z,0.51
2024-03-04T09:50:34.744Z,0.51
2024-03-04T09:51:34.676Z,0.50
2024-03-04T09:52:34.739Z,0.51
2024-03-04T09:53:34.752Z,0.52
2024-03-04T09:54:34.786Z,0.51
2024-03-04T09:55:35.795Z,0.51
2024-03-04T09:56:34.888Z,0.51
2024-03-04T09:57:34.889Z,0.51
2024-03-04T09:58:35.024Z,0.50
2024-03-04T09:59:34.967Z,0.51
2024-03-04T10:00:35.276Z,0.51
2024-03-04T10:01:35.185Z,0.51
2024-03-04T10:02:35.096Z,0.51
2024-03-04T10:03:35.093Z,0.53
2024-03-04T10:04:35.201Z,0.54
2024-03-04T10:05:35.185Z,0.55
2024-03-04T10:06:35.216Z,0.57
2024-03-04T10:07:35.300Z,0.61
2024-03-04T10:08:35.271Z,0.61
2024-03-04T10:09:35.312Z,0.65
2024-03-04T10:10:35.345Z,0.66
2024-03-04T10:11:35.365Z,0.67
2024-03-04T10:12:35.351Z,0.70
2024-03-04T10:13:35.392Z,0.74
2024-03-04T10:14:35.418Z,0.79
2024-03-04T10:15:35.427Z,0.83
2024-03-04T10:16:35.499Z,0.87
2024-03-04T10:17:35.508Z,0.92
2024-03-04T10:18:35.563Z,1.03
2024-03-04T10:19:35.596Z,1.07
2024-03-04T10:20:35.972Z,1.14
2024-03-04T10:21:35.618Z,1.23
2024-03-04T10:22:35.740Z,1.26
2024-03-04T10:23:35.700Z,1.31
2024-03-04T10:24:35.718Z,1.34
2024-03-04T10:25:35.922Z,1.38
2024-03-04T10:26:35.788Z,1.38
2024-03-04T10:27:35.858Z,1.35
2024-03-04T10:28:35.976Z,1.33
2024-03-04T10:29:35.942Z,1.29
2024-03-04T10:30:36.337Z,1.22
2024-03-04T10:31:36.077Z,1.19
2024-03-04T10:32:36.211Z,1.20
2024-03-04T10:33:36.181Z,1.18
2024-03-04T10:34:36.308Z,1.17
2024-03-04T10:35:37.271Z,1.19
2024-03-04T10:36:36.351Z,1.22
2024-03-04T10:37:36.446Z,1.24
2024-03-04T10:38:36.402Z,1.32
2024-03-04T10:39:36.452Z,1.38
2024-03-04T10:40:36.884Z,1.46
2024-03-04T10:41:36.521Z,1.50
2024-03-04T10:42:36.550Z,1.56
2024-03-04T10:43:36.667Z,1.70
2024-03-04T10:44:36.636Z,1.72
2024-03-04T10:45:36.744Z,1.80
2024-03-04T10:46:36.733Z,1.83
2024-03-04T10:47:36.827Z,1.87
2024-03-04T10:48:36.797Z,1.91
2024-03-04T10:49:36.891Z,1.87
2024-03-04T10:50:37.282Z,1.89
2024-03-04T10:51:36.985Z,1.83
2024-03-04T10:52:36.999Z,1.80
2024-03-04T10:53:37.085Z,1.74
2024-03-04T10:54:37.053Z,1.70
2024-03-04T10:55:37.178Z,1.73
2024-03-04T10:56:37.195Z,1.70
2024-03-04T10:57:37.152Z,1.73
2024-03-04T10:58:37.161Z,1.72
2024-03-04T10:59:37.196Z,1.73
2024-03-04T11:00:37.263Z,1.67
2024-03-04T11:01:37.313Z,1.66
2024-03-04T11:02:37.362Z,1.66
2024-03-04T11:03:37.296Z,1.65
2024-03-04T11:04:37.405Z,1.62
2024-03-04T11:05:37.323Z,1.63
2024-03-04T11:06:37.389Z,1.61
2024-03-04T11:07:37.431Z,1.57
2024-03-04T11:08:37.391Z,1.56
2024-03-04T11:09:37.391Z,1.51
2024-03-04T11:10:37.503Z,1.43
2024-03-04T11:11:37.481Z,1.35
2024-03-04T11:12:37.456Z,1.28
2024-03-04T11:13:37.531Z,1.18
2024-03-04T11:14:37.477Z,1.15
2024-03-04T11:15:37.534Z,1.06
2024-03-04T11:16:40.512Z,1.04
2024-03-04T11:17:37.581Z,1.00
2024-03-04T11:18:37.661Z,1.01
2024-03-04T11:19:37.783Z,0.99
2024-03-04T11:20:37.591Z,1.05
2024-03-04T11:21:37.561Z,1.03
2024-03-04T11:22:37.593Z,0.96
2024-03-04T11:23:37.540Z,0.93
2024-03-04T11:24:37.548Z,0.90
2024-03-04T11:25:37.648Z,0.86
2024-03-04T11:26:37.697Z,0.83
2024-03-04T11:27:37.580Z,0.80
2024-03-04T11:28:41.122Z,0.80
2024-03-04T11:29:37.664Z,0.80
2024-03-04T11:30:37.827Z,0.79
2024-03-04T11:31:37.585Z,0.81
2024-03-04T11:32:37.598Z,0.84
2024-03-04T11:33:37.606Z,0.89
2024-03-04T11:34:40.541Z,0.94
2024-03-04T11:35:37.793Z,0.94
2024-03-04T11:36:38.272Z,0.98
2024-03-04T11:37:37.594Z,1.06
2024-03-04T11:38:37.594Z,1.11
2024-03-04T11:39:37.571Z,1.17
2024-03-04T11:40:37.869Z,1.24
2024-03-04T11:41:37.774Z,1.24
2024-03-04T11:42:37.631Z,1.30
2024-03-04T11:43:37.729Z,1.37
2024-03-04T11:44:37.632Z,1.39
2024-03-04T11:45:37.599Z,1.44
2024-03-04T11:46:38.391Z,1.49
2024-03-04T11:47:37.596Z,1.51
2024-03-04T11:48:37.573Z,1.52
2024-03-04T11:49:37.668Z,1.60
2024-03-04T11:50:40.780Z,1.63
2024-03-04T11:51:38.325Z,1.63
2024-03-04T11:52:37.641Z,1.64
2024-03-04T11:53:37.670Z,1.68
2024-03-04T11:54:37.650Z,1.75
2024-03-04T11:55:37.800Z,1.80
2024-03-04T11:56:39.253Z,1.85
2024-03-04T11:57:37.670Z,1.85
2024-03-04T11:58:37.712Z,1.87
2024-03-04T11:59:37.654Z,1.91
2024-03-04T12:00:37.599Z,1.97
2024-03-04T12:01:37.658Z,2.13
2024-03-04T12:02:37.702Z,2.25
2024-03-04T12:03:37.607Z,2.26
2024-03-04T12:04:37.710Z,2.29
2024-03-04T12:05:37.620Z,2.32
2024-03-04T12:06:37.597Z,2.15
2024-03-04T12:07:37.696Z,2.07
2024-03-04T12:08:51.948Z,1.92
2024-03-04T12:09:51.400Z,1.86
2024-03-04T12:10:38.691Z,1.70
2024-03-04T12:11:37.753Z,1.61
2024-03-04T12:12:38.124Z,1.46
2024-03-04T12:13:37.676Z,1.30
2024-03-04T12:14:37.616Z,1.23
2024-03-04T12:15:37.677Z,1.13
2024-03-04T12:16:37.645Z,1.11
2024-03-04T12:17:37.801Z,1.05
2024-03-04T12:18:39.093Z,1.01
2024-03-04T12:19:37.688Z,0.95
2024-03-04T12:20:37.824Z,0.95
2024-03-04T12:21:37.855Z,1.02
2024-03-04T12:22:38.351Z,1.21
2024-03-04T12:23:37.634Z,1.47
2024-03-04T12:24:38.731Z,1.64
2024-03-04T12:25:37.641Z,1.88
2024-03-04T12:26:37.643Z,2.00
2024-03-04T12:27:37.727Z,2.12
2024-03-04T12:28:37.685Z,2.31
2024-03-04T12:29:37.708Z,2.38
2024-03-04T12:30:37.729Z,2.46
2024-03-04T12:31:37.640Z,2.55
2024-03-04T12:32:37.836Z,2.52
2024-03-04T12:33:37.654Z,2.56
2024-03-04T12:34:37.733Z,2.61
2024-03-04T12:35:37.642Z,2.57
2024-03-04T12:36:38.380Z,2.56
2024-03-04T12:37:37.770Z,2.50
2024-03-04T12:38:37.649Z,2.42
2024-03-04T12:39:37.640Z,2.41
2024-03-04T12:40:37.728Z,2.39
2024-03-04T12:41:37.706Z,2.25
2024-03-04T12:42:37.698Z,2.22
2024-03-04T12:43:37.709Z,2.28
2024-03-04T12:44:37.644Z,2.20
2024-03-04T12:45:37.657Z,2.19
2024-03-04T12:46:37.764Z,2.24
2024-03-04T12:47:37.708Z,2.19
2024-03-04T12:48:37.655Z,2.20
2024-03-04T12:49:37.678Z,2.22
2024-03-04T12:50:37.672Z,2.16
2024-03-04T12:51:37.656Z,2.21
2024-03-04T12:52:37.878Z,2.19
2024-03-04T12:53:37.667Z,2.14
2024-03-04T12:54:37.670Z,2.10
2024-03-04T12:55:37.695Z,2.10
2024-03-04T12:56:37.753Z,2.06
2024-03-04T12:57:37.759Z,2.03
2024-03-04T12:58:37.782Z,2.01
2024-03-04T12:59:37.683Z,2.02
2024-03-04T13:00:37.723Z,1.91
2024-03-04T13:01:37.744Z,1.84
2024-03-04T13:02:37.677Z,1.77
2024-03-04T13:03:37.674Z,1.67
2024-03-04T13:04:37.730Z,1.56
2024-03-04T13:05:37.701Z,1.52
2024-03-04T13:06:37.690Z,1.48
2024-03-04T13:07:37.709Z,1.40
2024-03-04T13:08:37.707Z,1.30
2024-03-04T13:09:37.712Z,1.26
2024-03-04T13:10:38.328Z,1.24
2024-03-04T13:11:37.830Z,1.15
2024-03-04T13:12:37.845Z,1.14
2024-03-04T13:13:37.850Z,1.06
2024-03-04T13:14:37.870Z,1.03
2024-03-04T13:15:37.960Z,0.96
2024-03-04T13:16:37.959Z,0.92
2024-03-04T13:17:37.947Z,0.87
2024-03-04T13:18:38.033Z,0.83